Oak Hill, WV

5:27 AM EDT on July 29, 2016 (GMT -0400)
Wren Lane | | Change Station

Elev 2405 ft 38.04 °N, 80.92 °W | Updated 9 minutes ago

Overcast
Overcast
68.0 °F
Feels Like 68.0 °F
N
0.0
Wind Variable Wind from NNW

Today
High -- | Low -- °F
--% Chance of Precip.
Yesterday
High -- | Low -- °F
Precip. -- in
Pressure 30.02 in
Visibility 10.0 miles
Clouds Mostly Cloudy 600 ft
Mostly Cloudy 1500 ft
Overcast 2100 ft
Dew Point 67 °F
Humidity 98%
Rainfall 0.05 in
Snow Depth Not available.
6:25 AM 8:35 PM
Waning Crescent, 23% visible
SPECI KBKW 290909Z AUTO 28003KT 10SM BKN006 BKN015 OVC021 19/18 A3002 RMK AO2 T01890183
Pressure 30.02 in
Visibility 10.0 miles
Clouds Mostly Cloudy 600 ft
Mostly Cloudy 1500 ft
Overcast 2100 ft
Dew Point 67 °F
Humidity 98%
Rainfall 0.05 in
Snow Depth Not available.
6:25 AM 8:35 PM
Waning Crescent, 23% visible
SPECI KBKW 290909Z AUTO 28003KT 10SM BKN006 BKN015 OVC021 19/18 A3002 RMK AO2 T01890183

10-Day Weather Forecast

Almanac

Astronomy

Jul. 29, 2016 Rise Set
Actual Time
Civil Twilight
Nautical Twilight
Astronomical Twilight
Moon
Length of Visible Light
Length of Day
Tomorrow will be .
, % of the Moon is Illuminated

Today's Extremes

State Highs State Lows

Community

WunderPhotos

Upload Photos

1,928,300 photos uploaded!

WunderBlog® & News

Nearby

Air Quality

  Air Quality AQ Index Pollutant
Not available.

Snow Depth

Station Depth Elevation

Earthquake Activity

City Distance Mag. Time & Date
Minimum magnitude displayed is 2.5.

Coastal Water Temperatures

Place Temperature

Stations

Nearby Weather Stations

Station Location Temp. Windchill Dew Point Humidity Wind Precip. Elev Updated Type
                   

Watches & Warnings

There are currently no watches in effect.